sensor_id;sensor_type;location;lat;lon;timestamp;pressure;altitude;pressure_sealevel;temperature;humidity
62548;BME280;48602;45.192;5.722;2022-10-31T00:01:24;99745.34;;;14.70;87.52
62548;BME280;48602;45.192;5.722;2022-10-31T00:03:50;99734.81;;;14.68;87.32
62548;BME280;48602;45.192;5.722;2022-10-31T00:06:16;99738.38;;;14.67;87.27
62548;BME280;48602;45.192;5.722;2022-10-31T00:08:44;99732.28;;;14.65;87.57
62548;BME280;48602;45.192;5.722;2022-10-31T00:11:10;99735.88;;;14.64;87.62
62548;BME280;48602;45.192;5.722;2022-10-31T00:13:36;99738.53;;;14.64;88.00
62548;BME280;48602;45.192;5.722;2022-10-31T00:16:01;99727.06;;;14.63;87.75
62548;BME280;48602;45.192;5.722;2022-10-31T00:18:27;99733.28;;;14.62;87.98
62548;BME280;48602;45.192;5.722;2022-10-31T00:21:02;99731.56;;;14.61;87.64
62548;BME280;48602;45.192;5.722;2022-10-31T00:23:28;99736.94;;;14.60;88.02
62548;BME280;48602;45.192;5.722;2022-10-31T00:25:54;99732.56;;;14.59;88.11
62548;BME280;48602;45.192;5.722;2022-10-31T00:28:24;99737.88;;;14.59;87.77
62548;BME280;48602;45.192;5.722;2022-10-31T00:30:50;99732.66;;;14.57;88.04
62548;BME280;48602;45.192;5.722;2022-10-31T00:33:15;99728.28;;;14.56;87.78
62548;BME280;48602;45.192;5.722;2022-10-31T00:35:40;99734.53;;;14.55;87.82
62548;BME280;48602;45.192;5.722;2022-10-31T00:38:06;99723.97;;;14.54;88.06
62548;BME280;48602;45.192;5.722;2022-10-31T00:40:31;99722.25;;;14.53;87.85
62548;BME280;48602;45.192;5.722;2022-10-31T00:42:56;99722.31;;;14.51;88.09
62548;BME280;48602;45.192;5.722;2022-10-31T00:45:22;99725.91;;;14.50;87.62
62548;BME280;48602;45.192;5.722;2022-10-31T00:47:47;99720.66;;;14.49;88.19
62548;BME280;48602;45.192;5.722;2022-10-31T00:50:12;99720.75;;;14.47;88.15
62548;BME280;48602;45.192;5.722;2022-10-31T00:52:38;99719.94;;;14.45;87.94
62548;BME280;48602;45.192;5.722;2022-10-31T00:55:03;99723.47;;;14.46;88.04
62548;BME280;48602;45.192;5.722;2022-10-31T00:57:29;99722.66;;;14.44;88.11
62548;BME280;48602;45.192;5.722;2022-10-31T00:59:54;99720.00;;;14.44;88.08
62548;BME280;48602;45.192;5.722;2022-10-31T01:02:19;99715.63;;;14.43;88.08
62548;BME280;48602;45.192;5.722;2022-10-31T01:04:45;99719.22;;;14.42;88.32
62548;BME280;48602;45.192;5.722;2022-10-31T01:07:10;99713.91;;;14.42;88.24
62548;BME280;48602;45.192;5.722;2022-10-31T01:09:37;99725.53;;;14.39;88.28
62548;BME280;48602;45.192;5.722;2022-10-31T01:12:02;99728.31;;;14.36;87.87
62548;BME280;48602;45.192;5.722;2022-10-31T01:14:28;99720.50;;;14.33;88.28
62548;BME280;48602;45.192;5.722;2022-10-31T01:16:53;99722.28;;;14.32;88.63
62548;BME280;48602;45.192;5.722;2022-10-31T01:19:19;99724.13;;;14.30;88.61
62548;BME280;48602;45.192;5.722;2022-10-31T01:21:45;99722.41;;;14.29;88.79
62548;BME280;48602;45.192;5.722;2022-10-31T01:24:10;99721.56;;;14.29;88.50
62548;BME280;48602;45.192;5.722;2022-10-31T01:26:35;99716.25;;;14.29;88.75
62548;BME280;48602;45.192;5.722;2022-10-31T01:29:04;99709.16;;;14.29;88.76
62548;BME280;48602;45.192;5.722;2022-10-31T01:31:32;99708.34;;;14.27;88.70
62548;BME280;48602;45.192;5.722;2022-10-31T01:33:58;99714.53;;;14.28;88.88
62548;BME280;48602;45.192;5.722;2022-10-31T01:36:27;99703.06;;;14.27;88.19
62548;BME280;48602;45.192;5.722;2022-10-31T01:38:56;99707.56;;;14.25;88.28
62548;BME280;48602;45.192;5.722;2022-10-31T01:41:25;99704.16;;;14.23;88.13
62548;BME280;48602;45.192;5.722;2022-10-31T01:44:00;99706.06;;;14.20;88.24
62548;BME280;48602;45.192;5.722;2022-10-31T01:46:39;99709.72;;;14.17;88.47
62548;BME280;48602;45.192;5.722;2022-10-31T01:49:11;99703.63;;;14.15;88.38
62548;BME280;48602;45.192;5.722;2022-10-31T01:51:42;99700.16;;;14.13;88.58
62548;BME280;48602;45.192;5.722;2022-10-31T01:54:13;99694.00;;;14.13;88.92
62548;BME280;48602;45.192;5.722;2022-10-31T01:56:42;99694.13;;;14.10;88.95
62548;BME280;48602;45.192;5.722;2022-10-31T01:59:12;99696.78;;;14.10;88.94
62548;BME280;48602;45.192;5.722;2022-10-31T02:01:39;99693.34;;;14.08;88.70
62548;BME280;48602;45.192;5.722;2022-10-31T02:04:06;99691.66;;;14.07;89.05
62548;BME280;48602;45.192;5.722;2022-10-31T02:06:42;99685.50;;;14.06;89.26
62548;BME280;48602;45.192;5.722;2022-10-31T02:09:12;99683.78;;;14.05;89.09
62548;BME280;48602;45.192;5.722;2022-10-31T02:11:38;99679.41;;;14.04;89.25
62548;BME280;48602;45.192;5.722;2022-10-31T02:14:04;99681.13;;;14.05;88.84
62548;BME280;48602;45.192;5.722;2022-10-31T02:16:29;99674.09;;;14.04;89.18
62548;BME280;48602;45.192;5.722;2022-10-31T02:18:55;99681.25;;;14.02;89.38
62548;BME280;48602;45.192;5.722;2022-10-31T02:26:54;99681.44;;;13.97;89.22
62548;BME280;48602;45.192;5.722;2022-10-31T02:32:29;99671.84;;;13.95;89.39
62548;BME280;48602;45.192;5.722;2022-10-31T02:38:06;99679.91;;;13.92;89.36
62548;BME280;48602;45.192;5.722;2022-10-31T02:41:01;99676.41;;;13.91;89.34
62548;BME280;48602;45.192;5.722;2022-10-31T02:46:25;99662.41;;;13.89;89.56
62548;BME280;48602;45.192;5.722;2022-10-31T02:48:56;99661.53;;;13.89;89.46
62548;BME280;48602;45.192;5.722;2022-10-31T02:51:22;99661.53;;;13.89;89.77
62548;BME280;48602;45.192;5.722;2022-10-31T02:53:48;99673.84;;;13.90;89.74
62548;BME280;48602;45.192;5.722;2022-10-31T02:56:18;99672.91;;;13.91;89.52
62548;BME280;48602;45.192;5.722;2022-10-31T02:58:57;99667.59;;;13.91;89.49
62548;BME280;48602;45.192;5.722;2022-10-31T03:06:44;99666.16;;;13.84;89.88
62548;BME280;48602;45.192;5.722;2022-10-31T03:12:09;99660.06;;;13.82;90.09
62548;BME280;48602;45.192;5.722;2022-10-31T03:14:56;99662.66;;;13.83;89.94
62548;BME280;48602;45.192;5.722;2022-10-31T03:17:46;99668.03;;;13.82;90.12
62548;BME280;48602;45.192;5.722;2022-10-31T03:20:19;99670.88;;;13.77;90.55
62548;BME280;48602;45.192;5.722;2022-10-31T03:22:46;99673.00;;;13.69;90.68
62548;BME280;48602;45.192;5.722;2022-10-31T03:25:13;99665.13;;;13.68;90.67
62548;BME280;48602;45.192;5.722;2022-10-31T03:27:40;99673.13;;;13.66;90.72
62548;BME280;48602;45.192;5.722;2022-10-31T03:30:07;99677.63;;;13.64;91.12
62548;BME280;48602;45.192;5.722;2022-10-31T03:32:41;99670.56;;;13.65;91.17
62548;BME280;48602;45.192;5.722;2022-10-31T03:35:10;99667.03;;;13.64;91.31
62548;BME280;48602;45.192;5.722;2022-10-31T03:37:37;99673.22;;;13.65;91.29
62548;BME280;48602;45.192;5.722;2022-10-31T03:40:06;99679.38;;;13.65;91.55
62548;BME280;48602;45.192;5.722;2022-10-31T03:42:34;99674.94;;;13.66;91.62
62548;BME280;48602;45.192;5.722;2022-10-31T03:45:06;99670.44;;;13.68;91.78
62548;BME280;48602;45.192;5.722;2022-10-31T03:47:36;99671.22;;;13.70;91.52
62548;BME280;48602;45.192;5.722;2022-10-31T03:50:03;99669.44;;;13.70;91.62
62548;BME280;48602;45.192;5.722;2022-10-31T03:52:33;99667.59;;;13.72;91.77
62548;BME280;48602;45.192;5.722;2022-10-31T03:55:16;99658.72;;;13.73;91.71
62548;BME280;48602;45.192;5.722;2022-10-31T04:00:13;99670.94;;;13.76;91.48
62548;BME280;48602;45.192;5.722;2022-10-31T04:02:42;99663.78;;;13.78;90.99
62548;BME280;48602;45.192;5.722;2022-10-31T04:05:09;99669.06;;;13.78;91.12
62548;BME280;48602;45.192;5.722;2022-10-31T04:07:40;99670.88;;;13.77;90.91
62548;BME280;48602;45.192;5.722;2022-10-31T04:10:10;99659.41;;;13.77;90.87
62548;BME280;48602;45.192;5.722;2022-10-31T04:12:37;99665.63;;;13.76;91.03
62548;BME280;48602;45.192;5.722;2022-10-31T04:15:05;99663.16;;;13.73;91.06
62548;BME280;48602;45.192;5.722;2022-10-31T04:17:38;99659.56;;;13.74;91.03
62548;BME280;48602;45.192;5.722;2022-10-31T04:20:05;99654.28;;;13.74;91.15
62548;BME280;48602;45.192;5.722;2022-10-31T04:22:31;99650.75;;;13.73;90.88
62548;BME280;48602;45.192;5.722;2022-10-31T04:24:56;99655.09;;;13.74;91.05
62548;BME280;48602;45.192;5.722;2022-10-31T04:27:22;99662.22;;;13.74;90.91
62548;BME280;48602;45.192;5.722;2022-10-31T04:29:47;99648.00;;;13.75;91.17
62548;BME280;48602;45.192;5.722;2022-10-31T04:32:13;99649.78;;;13.74;91.18
62548;BME280;48602;45.192;5.722;2022-10-31T04:34:38;99636.66;;;13.73;90.98
62548;BME280;48602;45.192;5.722;2022-10-31T04:37:03;99635.78;;;13.72;90.99
62548;BME280;48602;45.192;5.722;2022-10-31T04:39:29;99640.22;;;13.72;91.16
62548;BME280;48602;45.192;5.722;2022-10-31T04:41:54;99641.94;;;13.73;91.24
62548;BME280;48602;45.192;5.722;2022-10-31T04:44:20;99643.72;;;13.72;90.89
62548;BME280;48602;45.192;5.722;2022-10-31T04:46:45;99648.16;;;13.72;91.00
62548;BME280;48602;45.192;5.722;2022-10-31T04:49:10;99650.81;;;13.72;90.99
62548;BME280;48602;45.192;5.722;2022-10-31T04:51:36;99655.38;;;13.68;91.36
62548;BME280;48602;45.192;5.722;2022-10-31T04:54:01;99652.94;;;13.63;91.55
62548;BME280;48602;45.192;5.722;2022-10-31T04:56:27;99659.34;;;13.58;92.15
62548;BME280;48602;45.192;5.722;2022-10-31T04:58:52;99657.00;;;13.52;92.47
62548;BME280;48602;45.192;5.722;2022-10-31T05:01:17;99652.88;;;13.45;93.37
62548;BME280;48602;45.192;5.722;2022-10-31T05:03:43;99647.91;;;13.37;93.30
62548;BME280;48602;45.192;5.722;2022-10-31T05:06:08;99648.03;;;13.34;92.74
62548;BME280;48602;45.192;5.722;2022-10-31T05:08:34;99650.81;;;13.31;93.10
62548;BME280;48602;45.192;5.722;2022-10-31T05:11:00;99640.34;;;13.28;93.27
62548;BME280;48602;45.192;5.722;2022-10-31T05:13:27;99638.56;;;13.28;93.53
62548;BME280;48602;45.192;5.722;2022-10-31T05:15:52;99651.75;;;13.30;93.65
62548;BME280;48602;45.192;5.722;2022-10-31T05:18:17;99648.16;;;13.31;93.45
62548;BME280;48602;45.192;5.722;2022-10-31T05:20:43;99656.06;;;13.33;93.49
62548;BME280;48602;45.192;5.722;2022-10-31T05:23:08;99651.63;;;13.33;93.67
62548;BME280;48602;45.192;5.722;2022-10-31T05:25:33;99660.38;;;13.35;93.40
62548;BME280;48602;45.192;5.722;2022-10-31T05:27:59;99661.22;;;13.36;93.34
62548;BME280;48602;45.192;5.722;2022-10-31T05:30:27;99651.44;;;13.38;93.29
62548;BME280;48602;45.192;5.722;2022-10-31T05:32:53;99652.28;;;13.38;93.49
62548;BME280;48602;45.192;5.722;2022-10-31T05:35:22;99654.03;;;13.39;93.05
62548;BME280;48602;45.192;5.722;2022-10-31T05:37:48;99659.31;;;13.39;93.13
62548;BME280;48602;45.192;5.722;2022-10-31T05:40:15;99670.78;;;13.40;92.70
62548;BME280;48602;45.192;5.722;2022-10-31T05:42:42;99675.22;;;13.39;92.70
62548;BME280;48602;45.192;5.722;2022-10-31T05:45:14;99672.63;;;13.38;92.86
62548;BME280;48602;45.192;5.722;2022-10-31T05:47:40;99655.94;;;13.36;92.88
62548;BME280;48602;45.192;5.722;2022-10-31T05:50:06;99654.28;;;13.33;92.80
62548;BME280;48602;45.192;5.722;2022-10-31T05:52:32;99652.53;;;13.32;92.67
62548;BME280;48602;45.192;5.722;2022-10-31T05:54:57;99654.41;;;13.30;92.79
62548;BME280;48602;45.192;5.722;2022-10-31T05:57:23;99656.19;;;13.30;92.77
62548;BME280;48602;45.192;5.722;2022-10-31T05:59:49;99653.59;;;13.28;93.06
62548;BME280;48602;45.192;5.722;2022-10-31T06:02:16;99658.09;;;13.26;92.90
62548;BME280;48602;45.192;5.722;2022-10-31T06:04:41;99663.38;;;13.26;93.02
62548;BME280;48602;45.192;5.722;2022-10-31T06:07:06;99659.88;;;13.25;93.18
62548;BME280;48602;45.192;5.722;2022-10-31T06:09:32;99663.38;;;13.26;93.21
62548;BME280;48602;45.192;5.722;2022-10-31T06:11:57;99660.75;;;13.26;93.10
62548;BME280;48602;45.192;5.722;2022-10-31T06:14:23;99664.31;;;13.25;92.83
62548;BME280;48602;45.192;5.722;2022-10-31T06:16:48;99663.53;;;13.23;93.00
62548;BME280;48602;45.192;5.722;2022-10-31T06:19:13;99661.81;;;13.22;92.91
62548;BME280;48602;45.192;5.722;2022-10-31T06:21:39;99660.97;;;13.21;93.16
62548;BME280;48602;45.192;5.722;2022-10-31T06:24:04;99669.75;;;13.22;92.99
62548;BME280;48602;45.192;5.722;2022-10-31T06:26:30;99667.19;;;13.20;93.04
62548;BME280;48602;45.192;5.722;2022-10-31T06:28:55;99662.81;;;13.19;93.20
62548;BME280;48602;45.192;5.722;2022-10-31T06:31:20;99676.09;;;13.18;93.33
62548;BME280;48602;45.192;5.722;2022-10-31T06:33:46;99680.47;;;13.19;93.04
62548;BME280;48602;45.192;5.722;2022-10-31T06:36:11;99684.03;;;13.18;92.93
62548;BME280;48602;45.192;5.722;2022-10-31T06:38:36;99677.03;;;13.17;93.40
62548;BME280;48602;45.192;5.722;2022-10-31T06:41:03;99676.97;;;13.18;93.12
62548;BME280;48602;45.192;5.722;2022-10-31T06:43:29;99679.63;;;13.18;92.88
62548;BME280;48602;45.192;5.722;2022-10-31T06:45:55;99667.25;;;13.19;93.03
62548;BME280;48602;45.192;5.722;2022-10-31T06:48:20;99665.38;;;13.21;92.77
62548;BME280;48602;45.192;5.722;2022-10-31T06:50:46;99666.31;;;13.20;92.53
62548;BME280;48602;45.192;5.722;2022-10-31T06:53:11;99667.25;;;13.19;92.46
62548;BME280;48602;45.192;5.722;2022-10-31T06:55:38;99674.31;;;13.18;92.43
62548;BME280;48602;45.192;5.722;2022-10-31T06:58:03;99670.88;;;13.16;92.70
62548;BME280;48602;45.192;5.722;2022-10-31T07:00:30;99662.94;;;13.16;92.63
62548;BME280;48602;45.192;5.722;2022-10-31T07:02:57;99670.00;;;13.16;92.49
62548;BME280;48602;45.192;5.722;2022-10-31T07:05:23;99656.78;;;13.16;92.56
62548;BME280;48602;45.192;5.722;2022-10-31T07:07:53;99644.47;;;13.15;92.45
62548;BME280;48602;45.192;5.722;2022-10-31T07:10:19;99647.91;;;13.17;92.06
62548;BME280;48602;45.192;5.722;2022-10-31T07:12:44;99641.63;;;13.19;92.55
62548;BME280;48602;45.192;5.722;2022-10-31T07:15:10;99645.94;;;13.22;92.54
62548;BME280;48602;45.192;5.722;2022-10-31T07:17:35;99641.50;;;13.22;92.38
62548;BME280;48602;45.192;5.722;2022-10-31T07:20:00;99640.41;;;13.26;92.54
62548;BME280;48602;45.192;5.722;2022-10-31T07:22:33;99643.81;;;13.30;92.36
62548;BME280;48602;45.192;5.722;2022-10-31T07:24:58;99633.09;;;13.33;92.34
62548;BME280;48602;45.192;5.722;2022-10-31T07:27:23;99636.47;;;13.37;92.21
62548;BME280;48602;45.192;5.722;2022-10-31T07:29:49;99637.19;;;13.40;92.04
62548;BME280;48602;45.192;5.722;2022-10-31T07:32:14;99642.22;;;13.46;91.99
62548;BME280;48602;45.192;5.722;2022-10-31T07:34:39;99642.88;;;13.51;91.73
62548;BME280;48602;45.192;5.722;2022-10-31T07:37:05;99640.91;;;13.56;91.39
62548;BME280;48602;45.192;5.722;2022-10-31T07:39:30;99637.09;;;13.62;91.44
62548;BME280;48602;45.192;5.722;2022-10-31T07:41:58;99642.13;;;13.68;90.84
62548;BME280;48602;45.192;5.722;2022-10-31T07:44:23;99649.72;;;13.76;90.73
62548;BME280;48602;45.192;5.722;2022-10-31T07:46:49;99652.97;;;13.82;90.71
62548;BME280;48602;45.192;5.722;2022-10-31T07:49:14;99649.22;;;13.88;89.79
62548;BME280;48602;45.192;5.722;2022-10-31T07:51:39;99646.25;;;13.94;89.95
62548;BME280;48602;45.192;5.722;2022-10-31T07:54:05;99651.28;;;14.00;90.13
62548;BME280;48602;45.192;5.722;2022-10-31T07:56:30;99650.16;;;14.06;89.76
62548;BME280;48602;45.192;5.722;2022-10-31T07:58:55;99644.44;;;14.15;89.26
62548;BME280;48602;45.192;5.722;2022-10-31T08:01:21;99639.72;;;14.21;89.13
62548;BME280;48602;45.192;5.722;2022-10-31T08:03:46;99645.56;;;14.28;88.98
62548;BME280;48602;45.192;5.722;2022-10-31T08:06:11;99637.25;;;14.36;88.38
62548;BME280;48602;45.192;5.722;2022-10-31T08:08:37;99631.78;;;14.40;88.52
62548;BME280;48602;45.192;5.722;2022-10-31T08:11:02;99633.19;;;14.47;88.53
62548;BME280;48602;45.192;5.722;2022-10-31T08:13:28;99638.06;;;14.56;88.06
62548;BME280;48602;45.192;5.722;2022-10-31T08:15:53;99642.84;;;14.67;87.81
62548;BME280;48602;45.192;5.722;2022-10-31T08:18:19;99633.56;;;14.76;87.65
62548;BME280;48602;45.192;5.722;2022-10-31T08:20:47;99634.00;;;14.85;87.22
62548;BME280;48602;45.192;5.722;2022-10-31T08:23:12;99633.59;;;14.93;87.25
62548;BME280;48602;45.192;5.722;2022-10-31T08:25:39;99631.50;;;14.99;86.88
62548;BME280;48602;45.192;5.722;2022-10-31T08:28:05;99632.00;;;15.08;86.42
62548;BME280;48602;45.192;5.722;2022-10-31T08:30:33;99628.22;;;15.12;86.06
62548;BME280;48602;45.192;5.722;2022-10-31T08:35:28;99620.03;;;15.16;85.82
62548;BME280;48602;45.192;5.722;2022-10-31T08:37:55;99618.16;;;15.18;85.51
62548;BME280;48602;45.192;5.722;2022-10-31T08:40:21;99614.44;;;15.22;85.32
62548;BME280;48602;45.192;5.722;2022-10-31T08:42:46;99620.34;;;15.27;85.27
62548;BME280;48602;45.192;5.722;2022-10-31T08:45:12;99616.59;;;15.31;84.96
62548;BME280;48602;45.192;5.722;2022-10-31T08:47:37;99613.84;;;15.33;84.78
62548;BME280;48602;45.192;5.722;2022-10-31T08:50:03;99610.41;;;15.31;84.72
62548;BME280;48602;45.192;5.722;2022-10-31T08:52:28;99616.81;;;15.27;84.50
62548;BME280;48602;45.192;5.722;2022-10-31T08:54:53;99607.47;;;15.20;84.52
62548;BME280;48602;45.192;5.722;2022-10-31T08:57:19;99612.78;;;15.20;84.82
62548;BME280;48602;45.192;5.722;2022-10-31T08:59:44;99620.69;;;15.21;85.15
62548;BME280;48602;45.192;5.722;2022-10-31T09:02:10;99617.09;;;15.22;84.81
62548;BME280;48602;45.192;5.722;2022-10-31T09:04:35;99616.03;;;15.25;84.28
62548;BME280;48602;45.192;5.722;2022-10-31T09:07:00;99613.31;;;15.26;84.08
62548;BME280;48602;45.192;5.722;2022-10-31T09:09:26;99612.22;;;15.30;83.81
62548;BME280;48602;45.192;5.722;2022-10-31T09:11:51;99610.34;;;15.32;82.63
62548;BME280;48602;45.192;5.722;2022-10-31T09:14:16;99598.00;;;15.31;83.05
62548;BME280;48602;45.192;5.722;2022-10-31T09:16:42;99589.16;;;15.31;83.12
62548;BME280;48602;45.192;5.722;2022-10-31T09:19:07;99591.75;;;15.32;83.27
62548;BME280;48602;45.192;5.722;2022-10-31T09:21:32;99589.81;;;15.36;83.34
62548;BME280;48602;45.192;5.722;2022-10-31T09:23:58;99584.06;;;15.44;83.36
62548;BME280;48602;45.192;5.722;2022-10-31T09:26:23;99598.69;;;15.52;82.61
62548;BME280;48602;45.192;5.722;2022-10-31T09:28:48;99601.88;;;15.59;82.65
62548;BME280;48602;45.192;5.722;2022-10-31T09:31:14;99604.09;;;15.68;82.56
62548;BME280;48602;45.192;5.722;2022-10-31T09:33:40;99587.63;;;15.77;82.80
62548;BME280;48602;45.192;5.722;2022-10-31T09:36:05;99602.31;;;15.84;82.31
62548;BME280;48602;45.192;5.722;2022-10-31T09:38:30;99593.16;;;15.90;81.58
62548;BME280;48602;45.192;5.722;2022-10-31T09:51:44;99591.63;;;16.33;80.33
62548;BME280;48602;45.192;5.722;2022-10-31T09:54:15;99586.63;;;16.42;79.86
62548;BME280;48602;45.192;5.722;2022-10-31T09:56:42;99576.44;;;16.51;80.29
62548;BME280;48602;45.192;5.722;2022-10-31T09:59:28;99576.88;;;16.59;79.93
62548;BME280;48602;45.192;5.722;2022-10-31T10:02:16;99586.06;;;16.69;79.72
62548;BME280;48602;45.192;5.722;2022-10-31T10:04:56;99568.50;;;16.81;79.07
62548;BME280;48602;45.192;5.722;2022-10-31T10:10:12;99572.00;;;16.97;78.79
62548;BME280;48602;45.192;5.722;2022-10-31T10:13:04;99573.09;;;17.08;78.16
62548;BME280;48602;45.192;5.722;2022-10-31T10:21:02;99567.72;;;17.38;77.86
62548;BME280;48602;45.192;5.722;2022-10-31T10:26:43;99561.25;;;17.57;77.07
62548;BME280;48602;45.192;5.722;2022-10-31T10:29:33;99557.34;;;17.62;75.91
62548;BME280;48602;45.192;5.722;2022-10-31T10:32:08;99543.56;;;17.70;76.41
62548;BME280;48602;45.192;5.722;2022-10-31T10:34:46;99548.53;;;17.76;75.79
62548;BME280;48602;45.192;5.722;2022-10-31T10:39:59;99541.38;;;17.91;73.96
62548;BME280;48602;45.192;5.722;2022-10-31T10:42:27;99547.16;;;17.97;73.74
62548;BME280;48602;45.192;5.722;2022-10-31T10:45:17;99547.44;;;18.07;72.43
62548;BME280;48602;45.192;5.722;2022-10-31T10:50:39;99544.75;;;18.21;71.57
62548;BME280;48602;45.192;5.722;2022-10-31T10:55:43;99536.97;;;18.31;71.26
62548;BME280;48602;45.192;5.722;2022-10-31T10:58:10;99535.75;;;18.36;71.07
62548;BME280;48602;45.192;5.722;2022-10-31T11:00:43;99539.84;;;18.42;71.03
62548;BME280;48602;45.192;5.722;2022-10-31T11:03:11;99529.69;;;18.47;70.55
62548;BME280;48602;45.192;5.722;2022-10-31T11:05:56;99532.72;;;18.55;70.31
62548;BME280;48602;45.192;5.722;2022-10-31T11:08:28;99531.47;;;18.61;70.45
62548;BME280;48602;45.192;5.722;2022-10-31T11:11:01;99520.38;;;18.67;70.77
62548;BME280;48602;45.192;5.722;2022-10-31T11:13:28;99520.28;;;18.68;70.02
62548;BME280;48602;45.192;5.722;2022-10-31T11:16:02;99516.56;;;18.71;69.96
62548;BME280;48602;45.192;5.722;2022-10-31T11:18:34;99505.69;;;18.74;69.92
62548;BME280;48602;45.192;5.722;2022-10-31T11:21:03;99517.75;;;18.79;69.48
62548;BME280;48602;45.192;5.722;2022-10-31T11:23:30;99506.84;;;18.82;68.81
62548;BME280;48602;45.192;5.722;2022-10-31T11:28:20;99495.00;;;18.87;67.84
62548;BME280;48602;45.192;5.722;2022-10-31T11:30:57;99487.84;;;18.87;68.11
62548;BME280;48602;45.192;5.722;2022-10-31T11:35:55;99475.34;;;18.88;68.55
62548;BME280;48602;45.192;5.722;2022-10-31T11:38:24;99468.75;;;18.93;67.67
62548;BME280;48602;45.192;5.722;2022-10-31T11:43:53;99466.91;;;19.06;68.02
62548;BME280;48602;45.192;5.722;2022-10-31T11:46:26;99459.41;;;19.11;67.25
62548;BME280;48602;45.192;5.722;2022-10-31T11:48:54;99454.72;;;19.15;67.13
62548;BME280;48602;45.192;5.722;2022-10-31T11:51:24;99445.53;;;19.19;67.23
62548;BME280;48602;45.192;5.722;2022-10-31T11:53:53;99435.50;;;19.23;67.32
62548;BME280;48602;45.192;5.722;2022-10-31T11:56:19;99430.78;;;19.26;66.86
62548;BME280;48602;45.192;5.722;2022-10-31T11:58:55;99433.75;;;19.34;67.04
62548;BME280;48602;45.192;5.722;2022-10-31T12:01:27;99421.88;;;19.38;66.47
62548;BME280;48602;45.192;5.722;2022-10-31T12:04:10;99411.84;;;19.42;66.71
62548;BME280;48602;45.192;5.722;2022-10-31T12:06:39;99404.19;;;19.48;66.96
62548;BME280;48602;45.192;5.722;2022-10-31T12:16:57;99386.84;;;19.67;66.62
62548;BME280;48602;45.192;5.722;2022-10-31T12:22:13;99381.81;;;19.75;66.59
62548;BME280;48602;45.192;5.722;2022-10-31T12:24:58;99384.00;;;19.81;66.73
62548;BME280;48602;45.192;5.722;2022-10-31T12:30:23;99368.19;;;20.02;66.43
62548;BME280;48602;45.192;5.722;2022-10-31T12:35:46;99350.63;;;20.21;65.70
62548;BME280;48602;45.192;5.722;2022-10-31T12:38:42;99334.94;;;20.28;65.56
62548;BME280;48602;45.192;5.722;2022-10-31T13:00:04;99320.59;;;20.98;65.10
62548;BME280;48602;45.192;5.722;2022-10-31T13:02:48;99314.13;;;21.00;64.42
62548;BME280;48602;45.192;5.722;2022-10-31T13:08:05;99313.66;;;21.06;64.39
62548;BME280;48602;45.192;5.722;2022-10-31T13:10:42;99290.13;;;21.10;63.79
62548;BME280;48602;45.192;5.722;2022-10-31T13:13:26;99295.50;;;21.10;64.27
62548;BME280;48602;45.192;5.722;2022-10-31T13:16:16;99296.59;;;21.07;63.69
62548;BME280;48602;45.192;5.722;2022-10-31T13:21:41;99305.25;;;21.11;62.55
62548;BME280;48602;45.192;5.722;2022-10-31T13:24:13;99281.81;;;21.13;62.01
62548;BME280;48602;45.192;5.722;2022-10-31T13:26:49;99275.59;;;21.12;63.30
62548;BME280;48602;45.192;5.722;2022-10-31T13:29:23;99284.78;;;21.10;63.25
62548;BME280;48602;45.192;5.722;2022-10-31T13:31:50;99258.66;;;21.12;62.81
62548;BME280;48602;45.192;5.722;2022-10-31T13:34:45;99293.16;;;21.16;62.51
62548;BME280;48602;45.192;5.722;2022-10-31T13:37:31;99269.75;;;21.18;63.15
62548;BME280;48602;45.192;5.722;2022-10-31T13:45:34;99287.34;;;21.22;62.19
62548;BME280;48602;45.192;5.722;2022-10-31T13:50:32;99270.13;;;21.36;62.10
62548;BME280;48602;45.192;5.722;2022-10-31T13:56:27;99271.56;;;21.40;62.07
62548;BME280;48602;45.192;5.722;2022-10-31T14:01:32;99258.88;;;21.42;62.50
62548;BME280;48602;45.192;5.722;2022-10-31T14:04:18;99273.53;;;21.38;62.38
62548;BME280;48602;45.192;5.722;2022-10-31T14:09:34;99263.41;;;21.31;62.26
62548;BME280;48602;45.192;5.722;2022-10-31T14:12:10;99277.78;;;21.30;61.95
62548;BME280;48602;45.192;5.722;2022-10-31T14:14:46;99279.63;;;21.29;61.30
62548;BME280;48602;45.192;5.722;2022-10-31T14:17:48;99255.50;;;21.29;60.44
62548;BME280;48602;45.192;5.722;2022-10-31T14:22:41;99287.22;;;21.24;60.13
62548;BME280;48602;45.192;5.722;2022-10-31T14:27:50;99252.47;;;21.22;61.15
62548;BME280;48602;45.192;5.722;2022-10-31T14:30:20;99280.38;;;21.20;60.37
62548;BME280;48602;45.192;5.722;2022-10-31T14:32:59;99282.09;;;21.21;60.54
62548;BME280;48602;45.192;5.722;2022-10-31T14:35:41;99261.38;;;21.23;60.72
62548;BME280;48602;45.192;5.722;2022-10-31T14:38:18;99258.81;;;21.21;60.51
62548;BME280;48602;45.192;5.722;2022-10-31T14:46:02;99279.16;;;21.24;60.25
62548;BME280;48602;45.192;5.722;2022-10-31T14:51:10;99245.88;;;21.27;59.91
62548;BME280;48602;45.192;5.722;2022-10-31T14:56:27;99255.75;;;21.26;59.89
62548;BME280;48602;45.192;5.722;2022-10-31T14:58:55;99251.25;;;21.27;60.30
62548;BME280;48602;45.192;5.722;2022-10-31T15:01:30;99257.47;;;21.27;59.90
62548;BME280;48602;45.192;5.722;2022-10-31T15:04:11;99247.00;;;21.24;60.64
62548;BME280;48602;45.192;5.722;2022-10-31T15:06:44;99238.81;;;21.26;60.15
62548;BME280;48602;45.192;5.722;2022-10-31T15:09:22;99244.44;;;21.22;60.24
62548;BME280;48602;45.192;5.722;2022-10-31T15:11:47;99248.22;;;21.20;60.14
62548;BME280;48602;45.192;5.722;2022-10-31T15:14:29;99251.94;;;21.17;60.45
62548;BME280;48602;45.192;5.722;2022-10-31T15:16:57;99256.59;;;21.15;60.10
62548;BME280;48602;45.192;5.722;2022-10-31T15:19:25;99237.09;;;21.13;60.82
62548;BME280;48602;45.192;5.722;2022-10-31T15:21:53;99249.91;;;21.10;60.71
62548;BME280;48602;45.192;5.722;2022-10-31T15:24:19;99241.25;;;21.06;60.52
62548;BME280;48602;45.192;5.722;2022-10-31T15:26:48;99251.50;;;21.01;60.39
62548;BME280;48602;45.192;5.722;2022-10-31T15:29:17;99255.28;;;20.99;60.99